Time;durP1;ratioP1;P1;durP2;ratioP2;P2;SDS_P1;SDS_P2;PMS_P1;PMS_P2;Temp;Humidity;BMP_temperature;BMP_pressure;BME280_temperature;BME280_humidity;BME280_pressure;Samples;Min_cycle;Max_cycle;Signal;HPM_P1;HPM_P2
2020/12/16 00:01:09;;;;;;;42.40;21.10;;;;;;;4.78;84.85;100820.94;6168736;23;20016;-75
2020/12/16 00:03:34;;;;;;;36.30;18.50;;;;;;;4.79;85.32;100824.41;6168721;23;20027;-75
2020/12/16 00:06:01;;;;;;;38.67;18.50;;;;;;;4.78;84.82;100828.81;6194636;23;20337;-75
2020/12/16 00:08:27;;;;;;;39.37;18.03;;;;;;;5.04;83.75;100827.13;6194910;23;20302;-75
2020/12/16 00:10:52;;;;;;;40.83;18.87;;;;;;;4.97;83.86;100828.47;6194749;23;20013;-75
2020/12/16 00:13:17;;;;;;;40.20;18.87;;;;;;;4.99;83.60;100834.47;6194879;23;20274;-75
2020/12/16 00:15:44;;;;;;;43.37;18.60;;;;;;;4.92;83.85;100821.84;6194936;23;20036;-72
2020/12/16 00:18:10;;;;;;;38.30;18.07;;;;;;;5.01;83.36;100842.22;6194807;23;20176;-72
2020/12/16 00:20:35;;;;;;;46.57;18.87;;;;;;;4.91;83.93;100838.53;6168369;23;20016;-72
2020/12/16 00:23:01;;;;;;;36.30;18.23;;;;;;;4.99;84.22;100837.09;6194793;23;20005;-72
2020/12/16 00:25:26;;;;;;;38.40;18.03;;;;;;;5.04;83.56;100823.66;6194911;23;20013;-72
2020/12/16 00:27:51;;;;;;;42.30;19.13;;;;;;;5.10;84.14;100844.25;6194775;23;20001;-72
2020/12/16 00:30:17;;;;;;;36.77;18.83;;;;;;;5.18;84.31;100849.00;6194054;23;20264;-72
2020/12/16 00:32:43;;;;;;;38.83;19.50;;;;;;;5.26;84.03;100839.72;6194701;23;20282;-72
2020/12/16 00:35:09;;;;;;;38.17;19.37;;;;;;;5.44;84.24;100848.16;6194664;23;20061;-72
2020/12/16 00:37:41;;;;;;;35.17;17.47;;;;;;;5.55;82.30;100848.28;6168408;23;20064;-72
2020/12/16 00:40:08;;;;;;;34.93;18.07;;;;;;;5.57;82.07;100840.28;6168293;23;20009;-72
2020/12/16 00:42:34;;;;;;;40.45;18.35;;;;;;;5.70;82.09;100855.13;6194577;23;20001;-72
2020/12/16 00:44:59;;;;;;;44.88;20.85;;;;;;;5.56;82.04;100834.19;6194526;23;20047;-72
2020/12/16 00:47:25;;;;;;;43.80;23.33;;;;;;;5.73;81.53;100841.78;6194798;23;20275;-72
2020/12/16 00:49:50;;;;;;;36.65;18.98;;;;;;;5.84;81.06;100850.72;6194324;23;20056;-72
2020/12/16 00:52:17;;;;;;;35.40;16.10;;;;;;;5.44;81.72;100806.13;6194596;23;20021;-72
2020/12/16 00:54:43;;;;;;;34.55;16.52;;;;;;;5.80;81.45;100852.72;6194346;23;20012;-72
2020/12/16 00:57:08;;;;;;;30.25;15.52;;;;;;;5.87;81.20;100853.97;6194431;23;20040;-72
2020/12/16 00:59:34;;;;;;;31.00;16.40;;;;;;;5.89;80.63;100859.13;6193970;23;20089;-72
2020/12/16 01:02:03;;;;;;;32.83;15.57;;;;;;;5.98;80.68;100855.91;6194435;23;20012;-72
2020/12/16 01:04:28;;;;;;;34.73;15.73;;;;;;;5.79;81.10;100858.91;6194267;23;20309;-72
2020/12/16 01:06:54;;;;;;;34.83;16.55;;;;;;;5.82;81.12;100853.44;6194395;23;20001;-72
2020/12/16 01:09:19;;;;;;;40.85;18.10;;;;;;;5.84;80.95;100856.81;6168014;23;20025;-72
2020/12/16 01:11:45;;;;;;;47.80;21.02;;;;;;;5.99;80.31;100853.16;6194624;23;20041;-72
2020/12/16 01:14:10;;;;;;;44.33;19.55;;;;;;;5.92;80.75;100858.94;6194384;23;20052;-72
2020/12/16 01:16:36;;;;;;;46.30;20.45;;;;;;;5.67;81.41;100846.59;6194946;23;20172;-72
2020/12/16 01:19:08;;;;;;;41.63;19.23;;;;;;;5.79;80.88;100856.28;6194358;23;20247;-72
2020/12/16 01:21:37;;;;;;;37.50;19.13;;;;;;;5.86;80.15;100854.09;6194982;23;20064;-72
2020/12/16 01:24:05;;;;;;;38.70;19.05;;;;;;;5.99;79.96;100858.41;6194300;23;19997;-72
2020/12/16 01:26:41;;;;;;;42.13;20.63;;;;;;;5.75;81.15;100850.41;6167953;23;20299;-72
2020/12/16 01:29:08;;;;;;;41.10;19.50;;;;;;;5.69;81.07;100853.44;6193859;23;20001;-72
2020/12/16 01:31:38;;;;;;;40.97;19.85;;;;;;;5.58;81.69;100853.31;6168151;23;20013;-72
2020/12/16 01:34:03;;;;;;;40.78;20.15;;;;;;;5.70;81.62;100855.13;6194647;23;19997;-72
2020/12/16 01:36:29;;;;;;;38.88;19.00;;;;;;;5.64;82.05;100847.66;6168257;23;20059;-72
2020/12/16 01:38:54;;;;;;;44.10;20.05;;;;;;;5.61;81.84;100844.41;6194340;23;20003;-72
2020/12/16 01:41:19;;;;;;;39.50;19.10;;;;;;;5.80;81.17;100846.63;6194735;23;20287;-72
2020/12/16 01:43:45;;;;;;;42.38;18.83;;;;;;;5.78;81.34;100836.22;6195551;23;20052;-72
2020/12/16 01:46:11;;;;;;;42.40;19.33;;;;;;;5.88;79.75;100845.16;6196105;23;20079;-72
2020/12/16 01:48:36;;;;;;;37.95;18.73;;;;;;;5.92;80.15;100844.03;6196285;23;20019;-72
2020/12/16 01:51:02;;;;;;;35.92;18.20;;;;;;;5.90;79.65;100839.81;6196456;23;20048;-72
2020/12/16 01:53:29;;;;;;;38.67;18.98;;;;;;;5.92;80.48;100857.16;6196204;23;20008;-72
2020/12/16 01:55:54;;;;;;;40.03;18.30;;;;;;;6.01;79.98;100853.91;6196334;23;20011;-72
2020/12/16 01:58:21;;;;;;;37.50;17.90;;;;;;;5.89;79.75;100817.06;6195893;23;20222;-72
2020/12/16 02:00:48;;;;;;;36.83;17.30;;;;;;;6.05;79.00;100851.91;6196105;23;20005;-72
2020/12/16 02:03:20;;;;;;;36.37;18.27;;;;;;;6.08;78.48;100839.38;6196082;23;20286;-72
2020/12/16 02:05:50;;;;;;;35.42;17.27;;;;;;;6.13;78.11;100844.31;6196217;23;20009;-72
2020/12/16 02:08:18;;;;;;;34.80;16.60;;;;;;;5.98;77.19;100840.13;6195995;23;19997;-72
2020/12/16 02:10:45;;;;;;;35.28;17.13;;;;;;;5.92;78.32;100849.28;6195646;23;20013;-72
2020/12/16 02:13:10;;;;;;;36.65;16.75;;;;;;;5.84;78.65;100835.78;6196016;23;20060;-72
2020/12/16 02:15:36;;;;;;;36.27;17.60;;;;;;;5.69;79.49;100842.94;6195702;23;20239;-72
2020/12/16 02:18:02;;;;;;;42.75;18.15;;;;;;;5.67;79.93;100849.22;6196016;23;20275;-72
2020/12/16 02:20:27;;;;;;;34.63;16.73;;;;;;;5.74;79.85;100846.09;6196081;23;20013;-72
2020/12/16 02:22:55;;;;;;;40.17;17.90;;;;;;;5.66;79.49;100850.19;6195875;23;20001;-72
2020/12/16 02:25:20;;;;;;;35.73;18.00;;;;;;;5.47;80.76;100841.84;6195959;23;20226;-72
2020/12/16 02:27:46;;;;;;;35.20;17.80;;;;;;;5.34;81.02;100833.94;6195829;23;20057;-72
2020/12/16 02:30:12;;;;;;;39.93;17.40;;;;;;;5.32;81.88;100848.97;6195281;23;20005;-72
2020/12/16 02:32:39;;;;;;;36.47;17.60;;;;;;;5.35;82.17;100854.84;6195811;23;20298;-72
2020/12/16 02:35:06;;;;;;;35.27;17.27;;;;;;;5.35;82.54;100849.59;6195992;23;20200;-72
2020/12/16 02:37:31;;;;;;;38.60;17.63;;;;;;;5.50;82.22;100847.75;6169558;23;20036;-72
2020/12/16 02:39:57;;;;;;;37.03;15.90;;;;;;;5.51;82.35;100846.81;6195681;23;20228;-72
2020/12/16 02:42:28;;;;;;;38.30;19.08;;;;;;;5.71;81.49;100856.81;6195790;23;20040;-72
2020/12/16 02:44:57;;;;;;;38.70;17.97;;;;;;;5.77;80.79;100850.28;6195426;23;20009;-72
2020/12/16 02:47:22;;;;;;;38.42;19.15;;;;;;;5.87;80.13;100850.50;6169382;23;20033;-72
2020/12/16 02:49:48;;;;;;;35.53;18.25;;;;;;;5.97;79.68;100848.97;6169026;23;20031;-72
2020/12/16 02:52:13;;;;;;;32.47;16.05;;;;;;;6.11;79.01;100853.25;6195640;23;20219;-72
2020/12/16 02:54:39;;;;;;;34.28;16.85;;;;;;;6.06;79.51;100854.41;6195316;23;20167;-72
2020/12/16 02:57:05;;;;;;;30.70;15.30;;;;;;;6.13;78.45;100854.00;6195614;23;20001;-72
2020/12/16 02:59:30;;;;;;;36.65;17.20;;;;;;;6.10;78.68;100855.06;6168780;23;20005;-72
2020/12/16 03:01:57;;;;;;;32.28;16.05;;;;;;;6.15;78.80;100850.31;6195750;23;20024;-72
2020/12/16 03:04:24;;;;;;;32.83;16.38;;;;;;;6.11;78.88;100851.47;6195341;23;20370;-72
2020/12/16 03:06:54;;;;;;;35.92;16.88;;;;;;;6.22;78.64;100845.47;6195390;23;20302;-72
2020/12/16 03:09:21;;;;;;;31.80;16.05;;;;;;;6.37;77.74;100857.56;6168945;23;20306;-72
2020/12/16 03:11:51;;;;;;;30.02;14.88;;;;;;;6.18;78.22;100844.84;6195123;23;20295;-72
2020/12/16 03:14:17;;;;;;;30.60;15.23;;;;;;;6.32;77.83;100862.31;6195215;23;20020;-72
2020/12/16 03:16:42;;;;;;;34.30;15.65;;;;;;;6.31;78.48;100855.38;6195340;23;19997;-72
2020/12/16 03:19:08;;;;;;;30.45;14.52;;;;;;;6.36;77.56;100862.00;6195340;23;19997;-72
2020/12/16 03:21:33;;;;;;;32.75;15.93;;;;;;;6.33;78.15;100866.63;6195839;23;20012;-72
2020/12/16 03:23:59;;;;;;;30.48;16.17;;;;;;;6.30;77.38;100859.78;6195373;23;20048;-72
2020/12/16 03:26:24;;;;;;;35.33;16.08;;;;;;;6.35;77.12;100865.56;6169208;23;20040;-72
2020/12/16 03:28:50;;;;;;;35.10;16.17;;;;;;;6.34;76.63;100860.41;6194807;23;19997;-72
2020/12/16 03:31:16;;;;;;;32.53;15.70;;;;;;;6.26;78.61;100875.91;6195502;23;20009;-72
2020/12/16 03:33:44;;;;;;;33.15;16.17;;;;;;;6.28;78.35;100871.38;6195217;23;19996;-72
2020/12/16 03:36:13;;;;;;;31.85;16.15;;;;;;;6.29;77.67;100873.06;6195593;23;20053;-72
2020/12/16 03:38:39;;;;;;;33.00;15.65;;;;;;;6.30;78.03;100882.63;6195240;23;19997;-72
2020/12/16 03:41:05;;;;;;;30.98;14.98;;;;;;;6.29;78.62;100873.06;6195487;23;20047;-72
2020/12/16 03:43:30;;;;;;;34.53;16.25;;;;;;;6.35;77.82;100884.00;6195217;23;19997;-72
2020/12/16 03:45:55;;;;;;;30.63;15.45;;;;;;;6.40;77.98;100875.78;6194835;23;20012;-72
2020/12/16 03:48:21;;;;;;;30.77;15.93;;;;;;;6.38;78.64;100873.25;6195132;23;20004;-72
2020/12/16 03:50:46;;;;;;;32.20;15.65;;;;;;;6.40;78.90;100881.03;6195115;23;20032;-72
2020/12/16 03:53:12;;;;;;;36.83;16.15;;;;;;;6.37;78.87;100881.25;6168911;23;20004;-72
2020/12/16 03:55:37;;;;;;;31.80;15.60;;;;;;;6.47;78.63;100886.72;6195147;23;20016;-72
2020/12/16 03:58:03;;;;;;;33.53;16.30;;;;;;;6.44;78.51;100885.13;6194761;23;19997;-72
2020/12/16 04:00:28;;;;;;;36.15;17.38;;;;;;;6.42;78.59;100894.09;6195073;23;20213;-72
2020/12/16 04:02:54;;;;;;;32.97;16.20;;;;;;;6.49;79.37;100898.81;6168630;23;20021;-72
2020/12/16 04:05:19;;;;;;;33.15;15.30;;;;;;;6.55;78.29;100894.91;6194735;23;20005;-72
2020/12/16 04:07:44;;;;;;;33.85;16.35;;;;;;;6.48;78.47;100909.44;6168711;23;20051;-72
2020/12/16 04:10:12;;;;;;;34.78;16.75;;;;;;;6.42;78.56;100894.91;6194306;23;20027;-72
2020/12/16 04:12:38;;;;;;;33.15;15.45;;;;;;;6.50;77.75;100894.38;6194941;23;20051;-72
2020/12/16 04:15:04;;;;;;;36.13;17.15;;;;;;;6.48;77.74;100898.91;6168637;23;20211;-72
2020/12/16 04:17:33;;;;;;;33.40;16.95;;;;;;;6.54;78.23;100904.59;6194823;23;20198;-72
2020/12/16 04:19:59;;;;;;;39.33;17.38;;;;;;;6.51;78.42;100896.91;6194770;23;20017;-72
2020/12/16 04:22:25;;;;;;;37.08;16.95;;;;;;;6.44;78.61;100894.81;6194765;23;20007;-73
2020/12/16 04:24:51;;;;;;;50.85;22.50;;;;;;;6.55;78.80;100900.16;6194620;23;20009;-72
2020/12/16 04:27:17;;;;;;;52.97;23.13;;;;;;;6.65;77.79;100907.31;6194838;23;20375;-72
2020/12/16 04:29:42;;;;;;;47.38;21.50;;;;;;;6.50;77.32;100913.66;6194178;23;20009;-72
2020/12/16 04:32:10;;;;;;;38.13;19.67;;;;;;;6.41;78.05;100909.03;6194590;23;20005;-72
2020/12/16 04:34:36;;;;;;;37.03;18.35;;;;;;;6.36;78.59;100913.75;6194700;23;20011;-72
2020/12/16 04:37:02;;;;;;;39.03;19.50;;;;;;;6.37;79.33;100913.66;6194544;23;20005;-72
2020/12/16 04:39:29;;;;;;;44.28;19.17;;;;;;;6.64;77.45;100920.56;6194536;23;20052;-72
2020/12/16 04:41:55;;;;;;;36.75;18.52;;;;;;;6.66;77.41;100922.13;6194627;23;20005;-72
2020/12/16 04:44:22;;;;;;;45.25;19.98;;;;;;;6.49;77.56;100913.75;6194434;23;20001;-72
2020/12/16 04:46:48;;;;;;;42.95;17.58;;;;;;;6.45;79.04;100922.81;6168286;23;20005;-72
2020/12/16 04:49:14;;;;;;;39.55;17.70;;;;;;;6.47;78.57;100928.81;6194446;23;20028;-72
2020/12/16 04:51:42;;;;;;;36.45;17.02;;;;;;;6.40;79.14;100918.72;6195000;23;20012;-72
2020/12/16 04:54:08;;;;;;;38.80;18.75;;;;;;;6.08;79.81;100926.16;6168177;23;20008;-72
2020/12/16 04:56:35;;;;;;;40.58;18.73;;;;;;;6.28;79.54;100927.44;6168411;23;20199;-72
2020/12/16 04:59:00;;;;;;;41.60;18.42;;;;;;;6.45;79.47;100938.59;6193994;23;20005;-72
2020/12/16 05:01:26;;;;;;;35.38;17.27;;;;;;;6.21;79.33;100936.69;6194947;23;20044;-72
2020/12/16 05:03:51;;;;;;;46.45;18.77;;;;;;;6.14;79.89;100927.53;6194542;23;20001;-72
2020/12/16 05:06:42;;;;;;;44.17;19.13;;;;;;;6.12;80.37;100944.34;6168340;23;20076;-72
2020/12/16 05:09:10;;;;;;;53.97;22.25;;;;;;;6.09;80.67;100946.25;6194323;23;20012;-72
2020/12/16 05:11:56;;;;;;;47.42;21.67;;;;;;;6.03;81.09;100941.41;6194055;23;20307;-72
2020/12/16 05:14:23;;;;;;;45.72;20.30;;;;;;;6.17;80.73;100939.63;6167854;23;20001;-72
2020/12/16 05:16:57;;;;;;;46.60;22.33;;;;;;;6.06;80.87;100932.47;6194823;23;19997;-72
2020/12/16 05:19:45;;;;;;;50.05;24.40;;;;;;;6.20;80.71;100937.63;6170143;23;19997;-72
2020/12/16 05:22:28;;;;;;;42.97;21.75;;;;;;;6.38;79.76;100946.91;6196579;23;20244;-72
2020/12/16 05:24:58;;;;;;;42.78;19.42;;;;;;;6.30;79.63;100946.59;6196365;23;20183;-72
2020/12/16 05:27:29;;;;;;;42.35;20.50;;;;;;;6.13;80.61;100944.25;6196516;23;20008;-72
2020/12/16 05:29:57;;;;;;;41.33;20.35;;;;;;;6.19;81.00;100951.72;6195929;23;20056;-72
2020/12/16 05:32:24;;;;;;;39.25;20.17;;;;;;;6.20;81.01;100953.41;6196352;23;20016;-72
2020/12/16 05:34:50;;;;;;;58.45;25.77;;;;;;;6.38;79.57;100961.84;6169842;23;20012;-72
2020/12/16 05:37:23;;;;;;;96.68;41.15;;;;;;;6.24;79.69;100961.94;6196383;23;20052;-72
2020/12/16 05:39:59;;;;;;;79.85;35.55;;;;;;;6.22;80.64;100962.03;6196226;23;20047;-72
2020/12/16 05:42:25;;;;;;;65.50;29.00;;;;;;;6.40;79.27;100968.69;6196320;23;20056;-72
2020/12/16 05:44:53;;;;;;;54.10;24.98;;;;;;;6.39;79.73;100964.38;6196180;23;20081;-72
2020/12/16 05:47:18;;;;;;;64.60;25.52;;;;;;;6.36;79.36;100961.13;6196272;23;20246;-72
2020/12/16 05:49:44;;;;;;;62.60;26.33;;;;;;;6.48;78.91;100962.91;6196345;23;20241;-72
2020/12/16 05:52:09;;;;;;;41.92;20.27;;;;;;;6.47;78.88;100970.91;6196074;23;20001;-72
2020/12/16 05:54:36;;;;;;;47.85;21.15;;;;;;;6.71;78.21;100977.94;6196101;23;20001;-72
2020/12/16 05:57:18;;;;;;;46.33;20.15;;;;;;;6.46;79.44;100974.47;6169866;23;20039;-72
2020/12/16 06:00:07;;;;;;;41.35;19.05;;;;;;;6.46;79.96;100991.09;6195718;23;20029;-72
2020/12/16 06:02:35;;;;;;;43.20;19.90;;;;;;;6.45;80.14;100991.22;6169847;23;20001;-72
2020/12/16 06:05:01;;;;;;;44.85;19.88;;;;;;;6.48;80.24;100980.47;6195993;23;20009;-72
2020/12/16 06:07:28;;;;;;;41.30;19.48;;;;;;;6.64;79.01;100999.53;6169888;23;20020;-72
2020/12/16 06:09:55;;;;;;;40.60;20.75;;;;;;;6.67;79.17;101008.06;6169222;23;20227;-72
2020/12/16 06:12:27;;;;;;;41.55;20.55;;;;;;;6.67;79.23;101005.41;6196000;23;20001;-72
2020/12/16 06:15:10;;;;;;;38.95;19.42;;;;;;;6.60;79.16;100993.63;6195961;23;20310;-72
2020/12/16 06:17:41;;;;;;;44.90;20.00;;;;;;;6.77;78.44;101010.03;6195983;23;20001;-72
2020/12/16 06:20:11;;;;;;;42.70;20.58;;;;;;;6.75;79.21;101004.03;6169554;23;20184;-72
2020/12/16 06:22:37;;;;;;;43.83;20.42;;;;;;;6.76;78.42;101003.94;6195880;23;20005;-72
2020/12/16 06:25:06;;;;;;;43.22;19.40;;;;;;;6.90;78.19;101010.88;6195891;23;20047;-72
2020/12/16 06:27:37;;;;;;;42.83;19.88;;;;;;;6.94;78.50;101010.53;6195875;23;20001;-73
2020/12/16 06:30:06;;;;;;;39.17;19.65;;;;;;;6.87;78.31;101003.19;6194981;23;20016;-73
2020/12/16 06:32:44;;;;;;;41.67;19.85;;;;;;;6.91;78.30;100999.38;6195826;23;20001;-72
2020/12/16 06:35:18;;;;;;;49.30;25.52;;;;;;;7.04;77.00;101023.91;6195837;23;20008;-72
2020/12/16 06:37:45;;;;;;;45.78;22.92;;;;;;;6.99;77.33;101024.22;6195868;23;20047;-72
2020/12/16 06:40:10;;;;;;;46.05;24.05;;;;;;;6.97;77.96;101020.03;6195775;23;20008;-72
2020/12/16 06:42:36;;;;;;;72.60;31.83;;;;;;;6.89;78.35;101015.28;6169541;23;20063;-73
2020/12/16 06:45:19;;;;;;;84.95;33.63;;;;;;;6.95;78.26;101022.75;6195438;23;20009;-72
2020/12/16 06:47:45;;;;;;;104.60;41.15;;;;;;;6.97;78.59;101020.84;6195601;23;20101;-73
2020/12/16 06:50:21;;;;;;;124.55;46.33;;;;;;;6.93;78.02;101016.75;6195499;23;20013;-73
2020/12/16 06:52:48;;;;;;;129.15;49.70;;;;;;;7.03;77.88;101011.69;6195508;23;20008;-73
2020/12/16 06:55:13;;;;;;;81.85;38.20;;;;;;;6.89;78.51;101017.94;6195656;23;20013;-73
2020/12/16 06:57:48;;;;;;;69.85;31.10;;;;;;;6.83;78.51;101028.88;6195512;23;20013;-73
2020/12/16 07:00:23;;;;;;;71.47;32.00;;;;;;;7.02;78.09;101018.75;6195261;23;20358;-72
2020/12/16 07:02:52;;;;;;;64.20;28.77;;;;;;;6.83;79.57;101002.56;6195456;23;20037;-72
2020/12/16 07:05:39;;;;;;;55.00;25.55;;;;;;;6.86;79.26;101027.81;6195576;23;20009;-73
2020/12/16 07:08:05;;;;;;;54.40;25.88;;;;;;;6.98;78.73;101011.16;6195587;23;20198;-72
2020/12/16 07:10:34;;;;;;;49.60;23.38;;;;;;;7.14;79.21;101021.47;6195151;23;20013;-73
2020/12/16 07:13:17;;;;;;;47.40;25.00;;;;;;;7.19;78.70;101029.88;6195497;23;20012;-73
2020/12/16 07:15:45;;;;;;;49.35;23.85;;;;;;;7.11;78.31;101026.94;6195714;23;20005;-72
2020/12/16 07:18:38;;;;;;;48.42;23.90;;;;;;;7.10;78.12;101033.16;6169284;23;20028;-73
2020/12/16 07:21:16;;;;;;;51.42;22.60;;;;;;;7.10;78.01;101028.75;6195672;23;20024;-72
2020/12/16 07:24:06;;;;;;;48.35;23.65;;;;;;;7.17;78.12;101031.78;6195507;23;20001;-75
2020/12/16 07:26:32;;;;;;;52.00;24.77;;;;;;;7.25;77.38;101032.06;6168457;23;20013;-75
2020/12/16 07:29:16;;;;;;;40.17;20.73;;;;;;;7.24;77.56;101041.78;6194919;23;20020;-75
2020/12/16 07:32:03;;;;;;;45.97;22.65;;;;;;;7.23;78.45;101040.09;6195586;23;20008;-75
2020/12/16 07:34:31;;;;;;;46.13;22.83;;;;;;;7.23;77.71;101039.25;6195236;23;20001;-75
2020/12/16 07:37:03;;;;;;;51.85;24.85;;;;;;;7.15;78.21;101036.31;6195113;23;19998;-75
2020/12/16 07:39:30;;;;;;;49.67;24.48;;;;;;;7.31;77.67;101029.03;6195012;23;19997;-75
2020/12/16 07:41:58;;;;;;;50.28;23.45;;;;;;;7.34;77.02;101029.66;6168963;23;20005;-75
2020/12/16 07:44:24;;;;;;;44.03;23.15;;;;;;;7.45;76.39;101031.53;6195034;23;20035;-75
2020/12/16 07:46:51;;;;;;;48.60;22.90;;;;;;;7.41;76.40;101031.84;6195033;23;20003;-75
2020/12/16 07:49:18;;;;;;;50.58;24.58;;;;;;;7.49;76.60;101034.78;6194735;23;20186;-76
2020/12/16 07:51:44;;;;;;;54.17;25.38;;;;;;;7.44;76.01;101027.19;6168741;23;20001;-75
2020/12/16 07:54:09;;;;;;;58.08;27.27;;;;;;;7.26;77.50;101031.97;6194999;23;20001;-75
2020/12/16 07:56:35;;;;;;;57.72;29.45;;;;;;;7.39;76.92;101029.31;6195553;23;20012;-75
2020/12/16 07:59:11;;;;;;;59.67;30.98;;;;;;;7.54;75.87;101035.28;6194494;23;20001;-75
2020/12/16 08:01:36;;;;;;;56.80;27.23;;;;;;;7.44;75.97;101040.38;6195513;23;20009;-75
2020/12/16 08:04:03;;;;;;;49.42;24.55;;;;;;;7.50;75.29;101034.66;6195149;23;20186;-75
2020/12/16 08:06:28;;;;;;;51.92;25.08;;;;;;;7.57;73.80;101049.09;6168840;23;20051;-75
2020/12/16 08:08:55;;;;;;;46.50;23.65;;;;;;;7.42;73.84;101021.19;6194997;23;19997;-75
2020/12/16 08:11:27;;;;;;;48.38;23.30;;;;;;;7.57;73.57;101046.44;6194528;23;20017;-75
2020/12/16 08:14:07;;;;;;;46.33;23.08;;;;;;;7.51;74.79;101044.25;6194948;23;19997;-75
2020/12/16 08:16:36;;;;;;;49.00;22.40;;;;;;;7.58;74.21;101052.56;6194653;23;20024;-75
2020/12/16 08:19:03;;;;;;;81.72;54.33;;;;;;;7.58;73.94;101050.75;6194726;23;20219;-75
2020/12/16 08:21:29;;;;;;;61.10;34.03;;;;;;;7.56;75.05;101052.66;6195321;23;20011;-75
2020/12/16 08:23:55;;;;;;;52.22;24.63;;;;;;;7.53;74.69;101038.88;6168850;23;20008;-75
2020/12/16 08:26:23;;;;;;;46.35;22.63;;;;;;;7.52;74.74;101045.94;6195141;23;20005;-75
2020/12/16 08:28:49;;;;;;;48.60;23.48;;;;;;;7.60;74.34;101043.59;6194274;23;20003;-75
2020/12/16 08:31:20;;;;;;;48.97;24.15;;;;;;;7.67;73.55;101041.34;6194966;23;20072;-75
2020/12/16 08:33:48;;;;;;;47.40;23.55;;;;;;;7.72;73.41;101031.31;6168412;23;19997;-75
2020/12/16 08:36:21;;;;;;;46.03;22.48;;;;;;;7.89;72.84;101033.53;6168474;23;20223;-75
2020/12/16 08:38:49;;;;;;;52.50;23.33;;;;;;;7.97;73.04;101043.53;6194704;23;20283;-75
2020/12/16 08:41:26;;;;;;;44.45;21.85;;;;;;;7.72;73.02;101046.28;6195012;23;20025;-75
2020/12/16 08:43:53;;;;;;;42.67;21.20;;;;;;;7.58;74.10;101047.28;6168379;23;20047;-75
2020/12/16 08:46:23;;;;;;;53.35;23.77;;;;;;;7.58;74.38;101048.13;6195013;23;20008;-75
2020/12/16 08:49:04;;;;;;;46.80;22.38;;;;;;;7.87;72.99;101053.91;6194559;23;20005;-75
2020/12/16 08:51:41;;;;;;;45.75;22.58;;;;;;;7.65;73.36;101044.09;6194885;23;20229;-75
2020/12/16 08:54:11;;;;;;;50.30;23.58;;;;;;;7.44;75.25;101053.56;6168265;23;20005;-75
2020/12/16 08:56:40;;;;;;;55.30;25.05;;;;;;;7.20;76.85;101050.84;6195112;23;20064;-75
2020/12/16 08:59:17;;;;;;;53.60;25.33;;;;;;;7.30;76.35;101051.06;6194357;23;20001;-75
2020/12/16 09:01:48;;;;;;;51.72;23.63;;;;;;;7.55;76.06;101044.88;6194417;23;20012;-75
2020/12/16 09:04:41;;;;;;;50.42;21.70;;;;;;;7.42;76.91;101050.19;6194375;23;19997;-75
2020/12/16 09:07:23;;;;;;;51.92;23.20;;;;;;;7.48;77.89;101043.63;6188362;23;20017;-75
2020/12/16 09:09:48;;;;;;;44.65;21.83;;;;;;;7.54;77.54;101048.47;6167996;23;20005;-75
2020/12/16 09:12:23;;;;;;;48.22;22.08;;;;;;;7.83;76.30;101038.44;6194274;23;20051;-75
2020/12/16 09:14:54;;;;;;;51.03;22.48;;;;;;;7.77;75.85;101030.97;6194109;23;20027;-75
2020/12/16 09:17:22;;;;;;;48.05;22.65;;;;;;;7.63;75.50;101029.34;6168264;23;20028;-75
2020/12/16 09:19:48;;;;;;;53.95;22.42;;;;;;;7.75;75.15;101024.97;6194279;23;20016;-75
2020/12/16 09:22:13;;;;;;;49.72;23.77;;;;;;;7.79;74.58;101029.91;6194892;23;20005;-75
2020/12/16 09:24:38;;;;;;;55.63;24.77;;;;;;;7.61;75.52;101020.72;6194272;23;20009;-75
2020/12/16 09:27:09;;;;;;;58.53;25.25;;;;;;;7.52;76.61;101022.22;6168144;23;20007;-75
2020/12/16 09:29:35;;;;;;;52.90;24.35;;;;;;;7.71;75.84;101016.44;6167651;23;20012;-75
2020/12/16 09:32:09;;;;;;;49.40;22.95;;;;;;;7.49;77.07;101009.25;6167937;23;20016;-75
2020/12/16 09:34:55;;;;;;;48.55;23.05;;;;;;;7.46;77.35;101020.03;6194370;23;20001;-75
2020/12/16 09:37:42;;;;;;;50.15;22.92;;;;;;;7.46;76.81;101009.47;6193710;23;20028;-75
2020/12/16 09:40:10;;;;;;;51.85;25.42;;;;;;;7.58;76.40;100999.84;6163775;23;20020;-75
2020/12/16 09:42:36;;;;;;;61.15;25.55;;;;;;;7.60;77.26;101006.69;6194493;23;20007;-75
2020/12/16 09:45:13;;;;;;;53.47;24.35;;;;;;;7.77;76.35;101000.16;6194194;23;20013;-75
2020/12/16 09:47:43;;;;;;;58.10;26.38;;;;;;;7.83;76.08;100998.88;6194297;23;20008;-75
2020/12/16 09:50:08;;;;;;;62.78;28.15;;;;;;;7.83;75.45;100983.91;6194163;23;20016;-75
2020/12/16 09:52:36;;;;;;;56.85;26.77;;;;;;;7.95;75.04;100992.69;6168186;23;20005;-75
2020/12/16 09:55:22;;;;;;;61.88;27.85;;;;;;;7.84;75.62;100993.50;6194164;23;20008;-75
2020/12/16 09:58:05;;;;;;;61.80;29.52;;;;;;;8.01;74.51;100986.94;6167694;23;20001;-75
2020/12/16 10:00:34;;;;;;;55.65;28.52;;;;;;;7.99;73.77;100989.69;6167678;23;20017;-75
2020/12/16 10:03:07;;;;;;;65.38;30.73;;;;;;;7.75;75.44;100986.25;6167935;23;20345;-74
2020/12/16 10:05:33;;;;;;;71.87;33.07;;;;;;;7.63;76.40;100977.47;6169767;23;20017;-75
2020/12/16 10:07:59;;;;;;;64.57;30.40;;;;;;;7.80;75.53;100981.47;6196045;23;20593;-75
2020/12/16 10:10:29;;;;;;;71.60;31.98;;;;;;;7.86;74.77;100967.00;6195704;23;20028;-75
2020/12/16 10:12:55;;;;;;;72.20;32.75;;;;;;;7.96;75.54;100976.75;6196059;23;20005;-75
2020/12/16 10:15:21;;;;;;;76.10;34.33;;;;;;;7.80;75.62;100970.94;6195747;23;20287;-75
2020/12/16 10:17:46;;;;;;;72.80;35.42;;;;;;;7.55;76.72;100969.28;6195915;23;19997;-75
2020/12/16 10:20:11;;;;;;;71.00;32.97;;;;;;;7.63;76.45;100966.91;6196060;23;20021;-75
2020/12/16 10:22:40;;;;;;;64.13;31.00;;;;;;;7.60;75.96;100946.06;6196016;23;20024;-75
2020/12/16 10:25:05;;;;;;;68.40;32.58;;;;;;;7.78;75.94;100972.00;6195887;23;20016;-75
2020/12/16 10:27:32;;;;;;;64.38;30.25;;;;;;;7.69;76.03;100950.66;6195896;23;20001;-75
2020/12/16 10:30:01;;;;;;;65.05;31.73;;;;;;;7.91;75.57;100970.97;6195436;23;20001;-75
2020/12/16 10:32:27;;;;;;;63.33;31.77;;;;;;;7.83;75.98;100964.59;6196511;23;20011;-75
2020/12/16 10:34:53;;;;;;;66.85;33.00;;;;;;;7.56;77.13;100949.03;6195708;23;20001;-75
2020/12/16 10:37:21;;;;;;;70.28;35.50;;;;;;;7.50;77.17;100960.03;6195772;23;20005;-75
2020/12/16 10:39:47;;;;;;;69.75;32.53;;;;;;;7.33;77.56;100954.19;6195975;23;20036;-75
2020/12/16 10:42:12;;;;;;;77.20;36.33;;;;;;;7.33;77.78;100959.47;6195796;23;20199;-75
2020/12/16 10:44:38;;;;;;;74.10;34.78;;;;;;;7.28;77.34;100955.44;6169479;23;20097;-75
2020/12/16 10:47:03;;;;;;;67.72;32.53;;;;;;;7.25;78.96;100953.03;6195560;23;20017;-75
2020/12/16 10:49:29;;;;;;;69.90;33.35;;;;;;;7.12;78.88;100949.63;6195541;23;20048;-75
2020/12/16 10:51:54;;;;;;;66.57;33.17;;;;;;;7.16;78.60;100948.44;6195517;23;20005;-75
2020/12/16 10:54:21;;;;;;;73.32;33.83;;;;;;;7.10;80.06;100943.63;6195492;23;19996;-74
2020/12/16 10:56:54;;;;;;;72.10;32.80;;;;;;;7.05;80.12;100941.31;6169338;23;20001;-75
2020/12/16 10:59:20;;;;;;;66.77;31.27;;;;;;;7.03;79.63;100941.44;6194982;23;19997;-75
2020/12/16 11:01:45;;;;;;;62.58;29.58;;;;;;;6.95;80.05;100932.38;6195460;23;20194;-75
2020/12/16 11:04:10;;;;;;;59.92;29.55;;;;;;;7.28;79.25;100935.25;6169278;23;20044;-75
2020/12/16 11:06:42;;;;;;;55.97;28.27;;;;;;;7.16;79.62;100938.75;6196051;23;20005;-74
2020/12/16 11:09:08;;;;;;;57.42;27.08;;;;;;;6.99;79.29;100934.69;6195438;23;20001;-75
2020/12/16 11:11:40;;;;;;;57.97;26.27;;;;;;;6.94;79.57;100936.81;6195290;23;20125;-75
2020/12/16 11:14:06;;;;;;;57.30;25.27;;;;;;;6.99;80.28;100924.16;6195482;23;20005;-75
2020/12/16 11:16:31;;;;;;;56.40;26.50;;;;;;;7.10;79.36;100933.91;6195150;23;20318;-75
2020/12/16 11:18:57;;;;;;;60.38;28.10;;;;;;;7.11;78.87;100927.69;6195131;23;20008;-74
2020/12/16 11:21:23;;;;;;;49.45;24.63;;;;;;;7.04;78.76;100931.72;6195792;23;20011;-75
2020/12/16 11:23:49;;;;;;;50.97;24.35;;;;;;;7.03;79.16;100928.25;6195353;23;20048;-75